createdAt,value
2022-09-12T00:01:11.418Z,13.02
2022-09-12T00:03:38.894Z,12.02
2022-09-12T00:06:23.092Z,13.23
2022-09-12T00:08:50.965Z,15.20
2022-09-12T00:11:18.141Z,14.00
2022-09-12T00:13:44.730Z,12.75
2022-09-12T00:16:32.090Z,14.93
2022-09-12T00:18:59.521Z,13.95
2022-09-12T00:21:27.107Z,14.32
2022-09-12T00:23:54.164Z,14.70
2022-09-12T00:26:22.037Z,15.40
2022-09-12T00:28:49.452Z,14.55
2022-09-12T00:31:18.542Z,15.95
2022-09-12T00:33:45.408Z,13.68
2022-09-12T00:36:24.084Z,15.40
2022-09-12T00:38:54.702Z,16.15
2022-09-12T00:41:27.266Z,14.95
2022-09-12T00:44:16.290Z,14.38
2022-09-12T00:46:47.225Z,16.20
2022-09-12T00:49:16.653Z,14.52
2022-09-12T00:51:51.316Z,16.80
2022-09-12T00:54:22.641Z,15.40
2022-09-12T00:56:52.940Z,15.40
2022-09-12T00:59:27.639Z,16.48
2022-09-12T01:01:55.104Z,16.58
2022-09-12T01:04:25.566Z,15.95
2022-09-12T01:06:52.806Z,17.58
2022-09-12T01:09:22.465Z,16.35
2022-09-12T01:11:51.313Z,17.10
2022-09-12T01:14:18.731Z,17.40
2022-09-12T01:16:47.205Z,17.50
2022-09-12T01:19:38.671Z,17.58
2022-09-12T01:22:20.212Z,16.38
2022-09-12T01:24:59.199Z,18.30
2022-09-12T01:27:28.382Z,20.33
2022-09-12T01:30:22.692Z,20.33
2022-09-12T01:33:22.046Z,18.77
2022-09-12T01:35:57.313Z,18.73
2022-09-12T01:38:36.353Z,20.17
2022-09-12T01:41:44.297Z,19.92
2022-09-12T01:44:38.427Z,17.95
2022-09-12T01:47:24.038Z,18.52
2022-09-12T01:50:07.148Z,18.35
2022-09-12T01:52:39.668Z,17.63
2022-09-12T01:55:13.364Z,19.63
2022-09-12T01:57:45.534Z,17.38
2022-09-12T02:00:13.263Z,18.37
2022-09-12T02:03:03.207Z,18.50
2022-09-12T02:05:38.987Z,17.05
2022-09-12T02:08:14.434Z,17.73
2022-09-12T02:10:47.273Z,16.90
2022-09-12T02:13:20.366Z,17.00
2022-09-12T02:18:19.837Z,13.70
2022-09-12T02:20:49.194Z,16.17
2022-09-12T02:23:28.878Z,15.70
2022-09-12T02:25:59.876Z,14.60
2022-09-12T02:28:33.714Z,14.73
2022-09-12T02:31:19.281Z,15.40
2022-09-12T02:33:45.756Z,14.82
2022-09-12T02:36:25.588Z,17.02
2022-09-12T02:38:52.643Z,16.55
2022-09-12T02:41:20.843Z,16.55
2022-09-12T02:43:50.113Z,16.80
2022-09-12T02:46:23.302Z,18.10
2022-09-12T02:48:49.840Z,16.52
2022-09-12T02:51:21.516Z,16.17
2022-09-12T02:53:50.340Z,17.48
2022-09-12T02:56:29.468Z,16.90
2022-09-12T02:59:02.008Z,16.33
2022-09-12T03:01:53.420Z,16.50
2022-09-12T03:04:47.346Z,15.98
2022-09-12T03:07:31.582Z,16.50
2022-09-12T03:10:24.083Z,15.30
2022-09-12T03:13:11.468Z,15.82
2022-09-12T03:16:11.958Z,14.32
2022-09-12T03:18:55.894Z,16.20
2022-09-12T03:21:31.347Z,15.75
2022-09-12T03:24:04.452Z,16.38
2022-09-12T03:29:05.122Z,15.30
2022-09-12T03:31:31.889Z,16.42
2022-09-12T03:34:00.078Z,15.55
2022-09-12T03:36:28.889Z,17.15
2022-09-12T03:38:56.157Z,16.50
2022-09-12T03:41:22.889Z,16.10
2022-09-12T03:43:49.434Z,13.63
2022-09-12T03:46:15.975Z,14.65
2022-09-12T03:48:42.597Z,16.02
2022-09-12T03:51:10.942Z,16.20
2022-09-12T03:53:37.807Z,15.52
2022-09-12T03:56:11.861Z,16.00
2022-09-12T03:58:38.762Z,15.60
2022-09-12T04:01:12.533Z,16.67
2022-09-12T04:03:43.938Z,14.63
2022-09-12T04:06:12.616Z,14.85
2022-09-12T04:08:39.538Z,13.10
2022-09-12T04:11:09.039Z,14.85
2022-09-12T04:13:36.589Z,14.32
2022-09-12T04:16:04.554Z,14.95
2022-09-12T04:18:31.374Z,14.95
2022-09-12T04:20:58.262Z,14.70
2022-09-12T04:23:25.012Z,12.70
2022-09-12T04:25:59.960Z,13.90
2022-09-12T04:28:29.011Z,14.13
2022-09-12T04:30:56.524Z,13.57
2022-09-12T04:33:23.239Z,13.40
2022-09-12T04:35:50.365Z,12.85
2022-09-12T04:38:16.925Z,12.95
2022-09-12T04:40:43.560Z,14.68
2022-09-12T04:43:14.210Z,12.45
2022-09-12T04:45:41.264Z,12.43
2022-09-12T04:48:07.802Z,13.55
2022-09-12T04:50:34.276Z,13.02
2022-09-12T04:53:00.856Z,13.98
2022-09-12T04:55:27.643Z,14.15
2022-09-12T04:57:54.158Z,12.65
2022-09-12T05:00:20.673Z,13.25
2022-09-12T05:02:47.481Z,12.60
2022-09-12T05:05:14.013Z,11.13
2022-09-12T05:07:40.886Z,12.43
2022-09-12T05:10:08.093Z,11.35
2022-09-12T05:12:34.595Z,11.38
2022-09-12T05:15:01.113Z,10.85
2022-09-12T05:17:29.741Z,11.57
2022-09-12T05:19:56.293Z,11.20
2022-09-12T05:22:22.957Z,10.50
2022-09-12T05:24:50.777Z,10.80
2022-09-12T05:27:17.870Z,10.77
2022-09-12T05:29:44.407Z,10.68
2022-09-12T05:32:12.510Z,10.63
2022-09-12T05:34:40.256Z,10.25
2022-09-12T05:37:06.775Z,8.63
2022-09-12T05:39:33.723Z,9.30
2022-09-12T05:42:00.231Z,9.27
2022-09-12T05:44:26.842Z,10.40
2022-09-12T05:46:53.699Z,10.35
2022-09-12T05:49:21.573Z,11.45
2022-09-12T05:51:48.437Z,9.75
2022-09-12T05:54:18.013Z,10.98
2022-09-12T05:56:45.520Z,9.23
2022-09-12T05:59:15.594Z,10.50
2022-09-12T06:01:42.752Z,9.15
2022-09-12T06:04:09.506Z,8.90
2022-09-12T06:06:39.154Z,10.13
2022-09-12T06:09:06.873Z,9.85
2022-09-12T06:11:35.582Z,10.18
2022-09-12T06:14:02.342Z,9.82
2022-09-12T06:16:31.334Z,9.57
2022-09-12T06:19:02.645Z,9.60
2022-09-12T06:21:31.319Z,10.60
2022-09-12T06:23:59.038Z,9.95
2022-09-12T06:26:26.515Z,9.30
2022-09-12T06:28:56.105Z,9.77
2022-09-12T06:31:29.372Z,9.30
2022-09-12T06:33:57.444Z,8.93
2022-09-12T06:36:27.195Z,8.70
2022-09-12T06:38:58.440Z,9.30
2022-09-12T06:41:26.216Z,8.70
2022-09-12T06:43:53.621Z,8.88
2022-09-12T06:46:21.037Z,8.90
2022-09-12T06:48:48.250Z,9.73
2022-09-12T06:51:17.215Z,8.40
2022-09-12T06:53:45.391Z,9.82
2022-09-12T06:56:13.590Z,9.93
2022-09-12T06:58:41.561Z,7.68
2022-09-12T07:01:19.727Z,8.55
2022-09-12T07:03:55.171Z,8.48
2022-09-12T07:06:24.378Z,7.95
2022-09-12T07:08:51.009Z,8.55
2022-09-12T07:11:23.767Z,8.23
2022-09-12T07:13:53.200Z,7.25
2022-09-12T07:16:20.444Z,7.18
2022-09-12T07:19:09.240Z,6.32
2022-09-12T07:21:39.792Z,6.60
2022-09-12T07:24:09.523Z,6.45
2022-09-12T07:26:36.332Z,5.93
2022-09-12T07:29:32.231Z,6.13
2022-09-12T07:31:49.776Z,6.50
2022-09-12T07:34:17.657Z,6.25
2022-09-12T07:36:44.222Z,6.03
2022-09-12T07:39:10.953Z,6.10
2022-09-12T07:41:37.433Z,5.40
2022-09-12T07:44:06.732Z,5.90
2022-09-12T07:46:33.542Z,6.57
2022-09-12T07:49:01.383Z,6.30
2022-09-12T07:51:29.649Z,6.07
2022-09-12T07:53:56.672Z,6.45
2022-09-12T07:56:29.323Z,6.53
2022-09-12T07:58:56.968Z,6.40
2022-09-12T08:01:23.866Z,7.10
2022-09-12T08:03:55.364Z,7.35
2022-09-12T08:06:25.695Z,6.70
2022-09-12T08:08:57.070Z,6.95
2022-09-12T08:11:25.067Z,6.43
2022-09-12T08:13:55.622Z,6.03
2022-09-12T08:16:25.476Z,7.07
2022-09-12T08:18:52.021Z,5.53
2022-09-12T08:21:25.316Z,6.50
2022-09-12T08:23:54.180Z,6.47
2022-09-12T08:26:20.959Z,6.40
2022-09-12T08:28:48.201Z,6.13
2022-09-12T08:31:17.075Z,6.88
2022-09-12T08:33:44.200Z,5.97
2022-09-12T08:36:15.068Z,6.40
2022-09-12T08:38:43.997Z,6.43
2022-09-12T08:41:14.869Z,6.25
2022-09-12T08:44:07.137Z,6.50
2022-09-12T08:46:45.277Z,6.18
2022-09-12T08:49:18.625Z,6.78
2022-09-12T08:51:45.370Z,6.68
2022-09-12T08:54:39.295Z,6.68
2022-09-12T08:57:06.952Z,7.10
2022-09-12T08:59:42.848Z,7.15
2022-09-12T09:02:27.603Z,6.60
2022-09-12T09:05:17.939Z,7.40
2022-09-12T09:08:13.684Z,7.65
2022-09-12T09:11:13.023Z,7.07
2022-09-12T09:14:17.319Z,7.35
2022-09-12T09:16:46.794Z,6.38
2022-09-12T09:19:30.586Z,7.70
2022-09-12T09:22:06.275Z,7.85
2022-09-12T09:24:56.141Z,7.40
2022-09-12T09:27:40.843Z,8.15
2022-09-12T09:30:19.478Z,7.70
2022-09-12T09:32:50.589Z,7.65
2022-09-12T09:35:19.420Z,7.40
2022-09-12T09:38:00.448Z,7.20
2022-09-12T09:40:37.157Z,7.47
2022-09-12T09:43:24.513Z,7.45
2022-09-12T09:45:53.329Z,8.10
2022-09-12T09:48:25.815Z,8.15
2022-09-12T09:50:52.867Z,7.38
2022-09-12T09:53:31.208Z,7.93
2022-09-12T09:56:02.416Z,7.60
2022-09-12T09:58:34.373Z,7.72
2022-09-12T10:01:21.173Z,7.67
2022-09-12T10:03:53.107Z,7.38
2022-09-12T10:06:19.813Z,8.43
2022-09-12T10:08:48.588Z,7.80
2022-09-12T10:11:28.773Z,8.60
2022-09-12T10:14:03.189Z,7.75
2022-09-12T10:16:29.666Z,7.07
2022-09-12T10:18:58.630Z,8.15
2022-09-12T10:21:30.228Z,7.78
2022-09-12T10:24:22.776Z,7.63
2022-09-12T10:26:56.801Z,7.32
2022-09-12T10:29:33.627Z,7.75
2022-09-12T10:32:04.931Z,7.60
2022-09-12T10:34:37.147Z,8.27
2022-09-12T10:37:09.987Z,8.55
2022-09-12T10:42:05.860Z,7.75
2022-09-12T10:44:34.748Z,7.20
2022-09-12T10:47:20.312Z,9.27
2022-09-12T10:49:46.947Z,10.10
2022-09-12T10:52:18.256Z,9.18
2022-09-12T10:54:45.411Z,9.25
2022-09-12T10:57:22.965Z,10.68
2022-09-12T10:59:55.786Z,9.90
2022-09-12T11:02:59.216Z,9.75
2022-09-12T11:08:31.706Z,8.50
2022-09-12T11:11:13.808Z,9.13
2022-09-12T11:13:50.614Z,9.23
2022-09-12T11:16:43.046Z,8.50
2022-09-12T11:19:31.321Z,7.38
2022-09-12T11:22:22.042Z,6.72
2022-09-12T11:25:12.323Z,6.35
2022-09-12T11:27:50.916Z,6.65
2022-09-12T11:30:18.106Z,6.85
2022-09-12T11:32:56.452Z,5.82
2022-09-12T11:35:27.970Z,5.88
2022-09-12T11:38:00.436Z,6.33
2022-09-12T11:40:56.582Z,5.18
2022-09-12T11:43:33.330Z,4.45
2022-09-12T11:46:10.312Z,4.72
2022-09-12T11:49:03.107Z,3.95
2022-09-12T11:51:39.853Z,4.60
2022-09-12T11:54:36.200Z,4.53
2022-09-12T11:57:18.548Z,3.95
2022-09-12T12:02:36.809Z,4.03
2022-09-12T12:05:06.571Z,3.70
2022-09-12T12:07:45.642Z,4.38
2022-09-12T12:10:27.469Z,3.83
2022-09-12T12:12:56.232Z,4.53
2022-09-12T12:15:25.129Z,3.90
2022-09-12T12:18:17.604Z,3.72
2022-09-12T12:23:31.366Z,4.25
2022-09-12T12:26:00.427Z,4.07
2022-09-12T12:28:42.269Z,4.18
2022-09-12T12:31:10.620Z,3.88
2022-09-12T12:33:37.220Z,3.80
2022-09-12T12:36:09.957Z,4.40
2022-09-12T12:38:41.107Z,4.38
2022-09-12T12:41:16.742Z,3.75
2022-09-12T12:43:54.564Z,4.20
2022-09-12T12:46:22.685Z,3.90
2022-09-12T12:49:11.194Z,3.50
2022-09-12T12:51:43.815Z,2.70
2022-09-12T12:54:28.801Z,2.83
2022-09-12T12:57:13.398Z,3.42
2022-09-12T13:00:27.815Z,3.00
2022-09-12T13:03:06.633Z,2.92
2022-09-12T13:05:49.187Z,3.08
2022-09-12T13:08:18.731Z,3.30
2022-09-12T13:11:08.329Z,2.88
2022-09-12T13:13:41.645Z,3.00
2022-09-12T13:16:11.009Z,2.65
2022-09-12T13:18:49.638Z,2.80
2022-09-12T13:21:18.017Z,2.72
2022-09-12T13:23:45.311Z,2.80
2022-09-12T13:26:23.222Z,2.92
2022-09-12T13:28:51.534Z,2.35
2022-09-12T13:31:25.555Z,2.28
2022-09-12T13:33:58.980Z,2.13
2022-09-12T13:36:31.549Z,1.80
2022-09-12T13:39:27.353Z,1.88
2022-09-12T13:42:03.290Z,2.03
2022-09-12T13:44:32.923Z,1.92
2022-09-12T13:47:01.824Z,1.88
2022-09-12T13:49:37.890Z,2.45
2022-09-12T13:52:04.362Z,2.33
2022-09-12T13:54:32.978Z,1.92
2022-09-12T13:56:59.898Z,1.58
2022-09-12T13:59:26.482Z,1.65
2022-09-12T14:01:53.091Z,1.65
2022-09-12T14:04:44.173Z,1.50
2022-09-12T14:07:20.400Z,1.55
2022-09-12T14:09:55.022Z,1.88
2022-09-12T14:12:25.970Z,1.88
2022-09-12T14:14:53.512Z,1.63
2022-09-12T14:17:39.681Z,2.00
2022-09-12T14:20:18.720Z,1.85
2022-09-12T14:22:49.346Z,1.60
2022-09-12T14:25:20.678Z,1.38
2022-09-12T14:27:52.581Z,1.70
2022-09-12T14:30:34.342Z,1.67
2022-09-12T14:33:03.695Z,1.67
2022-09-12T14:35:30.704Z,1.85
2022-09-12T14:37:57.287Z,1.83
2022-09-12T14:40:24.174Z,1.58
2022-09-12T14:42:53.102Z,1.63
2022-09-12T14:45:30.974Z,1.70
2022-09-12T14:47:58.925Z,1.50
2022-09-12T14:50:29.221Z,1.58
2022-09-12T14:53:23.911Z,1.40
2022-09-12T14:55:59.546Z,1.30
2022-09-12T14:58:28.289Z,1.90
2022-09-12T15:00:59.001Z,1.73
2022-09-12T15:03:32.228Z,1.95
2022-09-12T15:06:00.166Z,1.75
2022-09-12T15:08:26.914Z,2.03
2022-09-12T15:10:53.767Z,1.60
2022-09-12T15:13:23.434Z,1.88
2022-09-12T15:15:53.572Z,1.88
2022-09-12T15:18:21.963Z,2.17
2022-09-12T15:20:52.919Z,2.55
2022-09-12T15:23:43.163Z,2.05
2022-09-12T15:26:13.365Z,1.73
2022-09-12T15:28:40.014Z,1.60
2022-09-12T15:31:12.752Z,2.28
2022-09-12T15:33:39.553Z,1.77
2022-09-12T15:36:14.438Z,1.63
2022-09-12T15:38:40.985Z,1.90
2022-09-12T15:41:19.448Z,1.77
2022-09-12T15:43:47.177Z,1.90
2022-09-12T15:46:15.294Z,2.10
2022-09-12T15:48:41.915Z,2.10
2022-09-12T15:51:20.198Z,2.15
2022-09-12T15:53:48.514Z,1.92
2022-09-12T15:56:17.436Z,1.88
2022-09-12T15:58:57.595Z,1.85
2022-09-12T16:01:24.684Z,2.05
2022-09-12T16:03:51.401Z,2.00
2022-09-12T16:06:17.957Z,1.90
2022-09-12T16:08:44.626Z,2.28
2022-09-12T16:11:18.379Z,2.03
2022-09-12T16:13:45.031Z,2.17
2022-09-12T16:16:11.650Z,1.88
2022-09-12T16:18:41.983Z,1.92
2022-09-12T16:21:12.757Z,1.73
2022-09-12T16:23:45.802Z,1.70
2022-09-12T16:26:12.347Z,1.77
2022-09-12T16:28:39.261Z,1.70
2022-09-12T16:31:08.904Z,1.88
2022-09-12T16:33:38.332Z,1.80
2022-09-12T16:36:10.506Z,1.83
2022-09-12T16:38:48.502Z,1.70
2022-09-12T16:41:17.100Z,1.38
2022-09-12T16:43:44.439Z,1.80
2022-09-12T16:46:13.749Z,2.03
2022-09-12T16:48:50.879Z,1.50
2022-09-12T16:51:21.328Z,1.67
2022-09-12T16:53:48.791Z,1.58
2022-09-12T16:56:15.500Z,1.60
2022-09-12T16:58:42.450Z,1.90
2022-09-12T17:01:21.370Z,1.90
2022-09-12T17:03:48.153Z,1.80
2022-09-12T17:06:19.012Z,1.98
2022-09-12T17:08:48.425Z,1.60
2022-09-12T17:11:16.620Z,1.40
2022-09-12T17:14:04.449Z,1.60
2022-09-12T17:16:34.154Z,1.90
2022-09-12T17:19:00.987Z,1.67
2022-09-12T17:21:27.670Z,1.50
2022-09-12T17:23:54.411Z,1.65
2022-09-12T17:26:21.005Z,1.55
2022-09-12T17:28:47.594Z,1.35
2022-09-12T17:31:15.041Z,1.52
2022-09-12T17:33:42.103Z,1.60
2022-09-12T17:36:15.337Z,1.60
2022-09-12T17:38:43.545Z,2.10
2022-09-12T17:41:19.186Z,2.00
2022-09-12T17:43:47.688Z,1.90
2022-09-12T17:46:14.802Z,1.90
2022-09-12T17:48:41.831Z,1.88
2022-09-12T17:51:13.581Z,2.20
2022-09-12T17:53:43.044Z,1.52
2022-09-12T17:56:11.036Z,2.17
2022-09-12T17:58:37.796Z,1.90
2022-09-12T18:01:25.432Z,2.00
2022-09-12T18:03:56.714Z,2.20
2022-09-12T18:06:24.486Z,2.05
2022-09-12T18:08:51.035Z,2.00
2022-09-12T18:11:17.703Z,2.28
2022-09-12T18:13:44.696Z,2.00
2022-09-12T18:16:13.864Z,2.10
2022-09-12T18:18:40.617Z,2.10
2022-09-12T18:21:10.371Z,2.20
2022-09-12T18:23:37.126Z,1.83
2022-09-12T18:26:09.717Z,2.25
2022-09-12T18:28:39.076Z,1.92
2022-09-12T18:31:11.247Z,2.10
2022-09-12T18:33:38.035Z,2.45
2022-09-12T18:36:06.026Z,2.00
2022-09-12T18:38:33.175Z,2.08
2022-09-12T18:41:08.270Z,2.05
2022-09-12T18:43:35.303Z,2.10
2022-09-12T18:46:10.435Z,1.95
2022-09-12T18:48:37.197Z,2.20
2022-09-12T18:51:08.102Z,2.08
2022-09-12T18:53:36.783Z,2.03
2022-09-12T18:56:04.772Z,1.98
2022-09-12T18:58:31.251Z,2.15
2022-09-12T19:00:58.647Z,2.08
2022-09-12T19:03:25.261Z,2.15
2022-09-12T19:05:52.139Z,2.13
2022-09-12T19:08:18.674Z,1.90
2022-09-12T19:10:45.260Z,2.05
2022-09-12T19:13:11.766Z,2.30
2022-09-12T19:15:41.363Z,2.28
2022-09-12T19:18:08.769Z,2.50
2022-09-12T19:20:36.602Z,2.40
2022-09-12T19:23:03.128Z,2.35
2022-09-12T19:25:29.677Z,2.05
2022-09-12T19:27:56.199Z,2.28
2022-09-12T19:30:22.716Z,2.50
2022-09-12T19:32:49.199Z,2.38
2022-09-12T19:35:15.857Z,2.15
2022-09-12T19:37:42.362Z,2.30
2022-09-12T19:40:09.258Z,2.35
2022-09-12T19:42:35.851Z,2.20
2022-09-12T19:45:02.405Z,1.80
2022-09-12T19:47:29.423Z,2.22
2022-09-12T19:49:55.917Z,2.60
2022-09-12T19:52:22.476Z,2.10
2022-09-12T19:54:49.004Z,2.50
2022-09-12T19:57:15.502Z,2.70
2022-09-12T19:59:42.067Z,2.33
2022-09-12T20:02:08.679Z,2.60
2022-09-12T20:04:35.306Z,2.33
2022-09-12T20:07:01.874Z,2.80
2022-09-12T20:09:28.337Z,2.40
2022-09-12T20:11:54.843Z,2.40
2022-09-12T20:14:22.225Z,3.15
2022-09-12T20:16:48.727Z,2.78
2022-09-12T20:19:15.195Z,3.13
2022-09-12T20:21:41.744Z,2.85
2022-09-12T20:24:13.688Z,2.80
2022-09-12T20:26:40.877Z,2.92
2022-09-12T20:29:08.283Z,2.67
2022-09-12T20:31:36.831Z,2.90
2022-09-12T20:34:04.595Z,2.63
2022-09-12T20:36:31.196Z,2.72
2022-09-12T20:39:02.598Z,2.83
2022-09-12T20:41:31.389Z,3.47
2022-09-12T20:43:58.067Z,2.97
2022-09-12T20:46:26.290Z,2.95
2022-09-12T20:48:52.936Z,3.28
2022-09-12T20:51:21.147Z,3.25
2022-09-12T20:53:48.600Z,3.63
2022-09-12T20:56:15.310Z,2.83
2022-09-12T20:58:44.285Z,3.00
2022-09-12T21:01:12.695Z,2.80
2022-09-12T21:03:40.168Z,3.20
2022-09-12T21:06:08.119Z,3.30
2022-09-12T21:08:35.726Z,3.55
2022-09-12T21:11:02.880Z,3.13
2022-09-12T21:13:29.519Z,3.28
2022-09-12T21:16:24.260Z,3.70
2022-09-12T21:18:56.721Z,3.22
2022-09-12T21:21:23.866Z,3.28
2022-09-12T21:23:55.280Z,3.20
2022-09-12T21:26:21.808Z,3.33
2022-09-12T21:28:48.418Z,3.97
2022-09-12T21:31:15.122Z,3.53
2022-09-12T21:33:41.729Z,3.75
2022-09-12T21:36:08.847Z,3.78
2022-09-12T21:38:35.399Z,3.33
2022-09-12T21:41:06.673Z,3.58
2022-09-12T21:43:33.403Z,3.58
2022-09-12T21:46:01.214Z,4.18
2022-09-12T21:48:28.221Z,4.05
2022-09-12T21:50:54.923Z,3.70
2022-09-12T21:53:21.577Z,3.78
2022-09-12T21:55:48.297Z,4.75
2022-09-12T21:58:14.782Z,3.72
2022-09-12T22:00:42.287Z,4.00
2022-09-12T22:03:10.419Z,4.25
2022-09-12T22:05:40.138Z,3.35
2022-09-12T22:08:08.017Z,3.75
2022-09-12T22:10:35.480Z,3.85
2022-09-12T22:13:02.424Z,3.45
2022-09-12T22:15:44.106Z,3.85
2022-09-12T22:18:10.827Z,3.30
2022-09-12T22:20:37.376Z,3.20
2022-09-12T22:23:24.786Z,3.63
2022-09-12T22:25:55.195Z,3.75
2022-09-12T22:28:21.710Z,3.63
2022-09-12T22:30:48.756Z,3.78
2022-09-12T22:33:15.338Z,3.58
2022-09-12T22:35:42.500Z,3.53
2022-09-12T22:38:09.233Z,3.55
2022-09-12T22:40:35.826Z,3.90
2022-09-12T22:43:02.414Z,4.72
2022-09-12T22:45:28.954Z,4.00
2022-09-12T22:47:59.182Z,3.90
2022-09-12T22:50:27.635Z,3.78
2022-09-12T22:52:54.185Z,4.00
2022-09-12T22:55:20.677Z,4.28
2022-09-12T22:57:47.309Z,4.25
2022-09-12T23:00:14.926Z,3.92
2022-09-12T23:02:41.502Z,4.43
2022-09-12T23:05:08.326Z,4.97
2022-09-12T23:07:34.840Z,3.78
2022-09-12T23:10:01.386Z,4.90
2022-09-12T23:12:27.901Z,4.68
2022-09-12T23:14:54.367Z,4.35
2022-09-12T23:17:20.894Z,4.60
2022-09-12T23:19:47.423Z,3.95
2022-09-12T23:22:14.018Z,4.25
2022-09-12T23:24:40.494Z,4.40
2022-09-12T23:27:07.162Z,4.28
2022-09-12T23:29:35.411Z,4.53
2022-09-12T23:32:03.509Z,4.57
2022-09-12T23:34:30.092Z,4.30
2022-09-12T23:36:56.893Z,4.28
2022-09-12T23:39:23.469Z,4.70
2022-09-12T23:41:50.527Z,4.07
2022-09-12T23:44:17.023Z,4.55
2022-09-12T23:46:43.603Z,4.15
2022-09-12T23:49:10.083Z,4.60
2022-09-12T23:51:36.757Z,4.57
2022-09-12T23:54:03.385Z,4.45
2022-09-12T23:56:29.969Z,4.30
2022-09-12T23:58:56.436Z,4.55
